createdAt,value
2022-12-15T00:01:16.471Z,-8.14
2022-12-15T00:03:43.660Z,-8.09
2022-12-15T00:06:10.888Z,-8.10
2022-12-15T00:08:37.888Z,-8.12
2022-12-15T00:11:05.224Z,-8.07
2022-12-15T00:13:32.769Z,-8.03
2022-12-15T00:16:00.215Z,-8.01
2022-12-15T00:18:27.218Z,-8.00
2022-12-15T00:20:57.968Z,-7.98
2022-12-15T00:23:24.983Z,-7.96
2022-12-15T00:25:52.045Z,-7.97
2022-12-15T00:28:19.031Z,-7.97
2022-12-15T00:30:49.797Z,-7.94
2022-12-15T00:33:17.432Z,-7.95
2022-12-15T00:35:44.432Z,-7.94
2022-12-15T00:38:14.313Z,-7.96
2022-12-15T00:40:41.350Z,-7.95
2022-12-15T00:43:08.507Z,-7.96
2022-12-15T00:45:35.590Z,-7.98
2022-12-15T00:48:02.572Z,-7.98
2022-12-15T00:50:29.572Z,-7.97
2022-12-15T00:52:56.647Z,-7.94
2022-12-15T00:55:23.657Z,-7.90
2022-12-15T00:57:53.011Z,-7.85
2022-12-15T01:00:20.305Z,-7.85
2022-12-15T01:02:47.430Z,-7.82
2022-12-15T01:05:14.621Z,-7.77
2022-12-15T01:07:41.617Z,-7.74
2022-12-15T01:10:08.804Z,-7.72
2022-12-15T01:12:35.812Z,-7.66
2022-12-15T01:15:03.293Z,-7.63
2022-12-15T01:17:30.368Z,-7.60
2022-12-15T01:19:57.377Z,-7.58
2022-12-15T01:22:24.489Z,-7.55
2022-12-15T01:24:51.538Z,-7.55
2022-12-15T01:27:18.573Z,-7.52
2022-12-15T01:29:45.749Z,-7.49
2022-12-15T01:32:13.085Z,-7.48
2022-12-15T01:34:40.247Z,-7.44
2022-12-15T01:37:07.355Z,-7.43
2022-12-15T01:39:34.355Z,-7.46
2022-12-15T01:42:01.340Z,-7.46
2022-12-15T01:44:28.594Z,-7.43
2022-12-15T01:46:57.564Z,-7.41
2022-12-15T01:49:29.271Z,-7.43
2022-12-15T01:51:58.878Z,-7.44
2022-12-15T01:54:31.064Z,-7.45
2022-12-15T01:57:04.727Z,-7.47
2022-12-15T01:59:39.831Z,-7.48
2022-12-15T02:02:07.058Z,-7.57
2022-12-15T02:04:34.468Z,-7.61
2022-12-15T02:07:01.573Z,-7.63
2022-12-15T02:09:30.562Z,-7.69
2022-12-15T02:12:06.776Z,-7.80
2022-12-15T02:15:00.100Z,-7.80
2022-12-15T02:17:27.049Z,-7.81
2022-12-15T02:19:53.965Z,-7.85
2022-12-15T02:22:30.773Z,-7.87
2022-12-15T02:25:22.319Z,-7.90
2022-12-15T02:27:58.017Z,-7.91
2022-12-15T02:30:36.920Z,-7.92
2022-12-15T02:33:13.097Z,-7.89
2022-12-15T02:36:03.804Z,-7.86
2022-12-15T02:38:39.860Z,-7.81
2022-12-15T02:41:37.444Z,-7.72
2022-12-15T02:44:18.896Z,-7.63
2022-12-15T02:47:12.107Z,-7.55
2022-12-15T02:49:58.035Z,-7.44
2022-12-15T02:52:40.411Z,-7.40
2022-12-15T02:55:16.996Z,-7.33
2022-12-15T02:58:02.250Z,-7.25
2022-12-15T03:00:33.936Z,-7.26
2022-12-15T03:03:01.268Z,-7.19
2022-12-15T03:05:31.795Z,-7.16
2022-12-15T03:07:58.902Z,-7.13
2022-12-15T03:10:27.891Z,-7.08
2022-12-15T03:12:54.950Z,-7.04
2022-12-15T03:15:22.494Z,-7.02
2022-12-15T03:17:49.504Z,-7.04
2022-12-15T03:20:16.589Z,-7.11
2022-12-15T03:22:43.571Z,-7.06
2022-12-15T03:25:10.975Z,-7.01
2022-12-15T03:27:37.970Z,-7.00
2022-12-15T03:30:05.999Z,-6.94
2022-12-15T03:32:33.046Z,-6.86
2022-12-15T03:35:00.130Z,-6.80
2022-12-15T03:37:27.236Z,-6.75
2022-12-15T03:39:54.249Z,-6.74
2022-12-15T03:42:21.329Z,-6.73
2022-12-15T03:44:48.315Z,-6.65
2022-12-15T03:47:15.315Z,-6.68
2022-12-15T03:49:42.332Z,-6.64
2022-12-15T03:52:09.380Z,-6.56
2022-12-15T03:54:36.453Z,-6.53
2022-12-15T03:57:10.069Z,-6.53
2022-12-15T03:59:37.459Z,-6.48
2022-12-15T04:02:04.741Z,-6.44
2022-12-15T04:04:31.921Z,-6.36
2022-12-15T04:06:58.903Z,-6.36
2022-12-15T04:09:26.129Z,-6.35
2022-12-15T04:11:53.081Z,-6.29
2022-12-15T04:14:20.140Z,-6.37
2022-12-15T04:16:47.175Z,-6.38
2022-12-15T04:19:14.275Z,-6.31
2022-12-15T04:21:41.325Z,-6.25
2022-12-15T04:24:08.340Z,-6.22
2022-12-15T04:26:35.339Z,-6.28
2022-12-15T04:29:02.348Z,-6.34
2022-12-15T04:31:34.104Z,-6.34
2022-12-15T04:34:02.251Z,-6.45
2022-12-15T04:36:30.436Z,-6.42
2022-12-15T04:38:58.549Z,-6.43
2022-12-15T04:41:25.645Z,-6.43
2022-12-15T04:43:52.673Z,-6.36
2022-12-15T04:46:19.707Z,-6.34
2022-12-15T04:48:46.740Z,-6.40
2022-12-15T04:51:13.919Z,-6.42
2022-12-15T04:53:43.428Z,-6.33
2022-12-15T04:56:16.632Z,-6.26
2022-12-15T04:58:46.910Z,-6.23
2022-12-15T05:01:14.023Z,-6.17
2022-12-15T05:03:41.174Z,-6.10
2022-12-15T05:06:08.380Z,-6.02
2022-12-15T05:08:35.631Z,-6.00
2022-12-15T05:11:02.741Z,-5.98
2022-12-15T05:13:30.078Z,-5.89
2022-12-15T05:15:57.474Z,-5.86
2022-12-15T05:18:24.520Z,-5.88
2022-12-15T05:20:51.693Z,-6.01
2022-12-15T05:23:18.746Z,-5.98
2022-12-15T05:25:45.798Z,-6.02
2022-12-15T05:28:12.808Z,-6.00
2022-12-15T05:30:39.981Z,-5.91
2022-12-15T05:33:07.082Z,-5.87
2022-12-15T05:35:34.072Z,-5.81
2022-12-15T05:38:01.077Z,-5.78
2022-12-15T05:40:28.108Z,-5.84
2022-12-15T05:42:58.261Z,-5.74
2022-12-15T05:45:26.204Z,-5.71
2022-12-15T05:47:55.728Z,-5.67
2022-12-15T05:50:23.353Z,-5.71
2022-12-15T05:52:50.632Z,-5.72
2022-12-15T05:55:18.773Z,-5.85
2022-12-15T05:57:55.315Z,-5.77
2022-12-15T06:00:23.044Z,-5.73
2022-12-15T06:02:50.310Z,-5.72
2022-12-15T06:05:18.016Z,-5.73
2022-12-15T06:07:45.008Z,-5.67
2022-12-15T06:10:12.037Z,-5.70
2022-12-15T06:12:39.170Z,-5.71
2022-12-15T06:15:06.509Z,-5.68
2022-12-15T06:17:33.530Z,-5.65
2022-12-15T06:20:02.709Z,-5.59
2022-12-15T06:22:29.919Z,-5.68
2022-12-15T06:24:57.080Z,-5.68
2022-12-15T06:27:24.201Z,-5.83
2022-12-15T06:29:51.249Z,-5.88
2022-12-15T06:32:18.378Z,-5.79
2022-12-15T06:34:45.430Z,-5.72
2022-12-15T06:37:12.903Z,-5.73
2022-12-15T06:39:40.064Z,-5.70
2022-12-15T06:42:07.074Z,-5.65
2022-12-15T06:44:34.275Z,-5.56
2022-12-15T06:47:01.423Z,-5.47
2022-12-15T06:49:28.495Z,-5.41
2022-12-15T06:51:55.563Z,-5.37
2022-12-15T06:54:22.541Z,-5.38
2022-12-15T06:56:49.927Z,-5.36
2022-12-15T06:59:17.187Z,-5.41
2022-12-15T07:01:44.525Z,-5.39
2022-12-15T07:04:12.094Z,-5.41
2022-12-15T07:06:40.032Z,-5.53
2022-12-15T07:09:13.010Z,-5.74
2022-12-15T07:11:40.015Z,-5.70
2022-12-15T07:14:07.016Z,-5.76
2022-12-15T07:16:34.078Z,-5.69
2022-12-15T07:19:01.434Z,-5.66
2022-12-15T07:21:28.515Z,-5.58
2022-12-15T07:23:57.042Z,-5.55
2022-12-15T07:26:25.346Z,-5.51
2022-12-15T07:28:52.447Z,-5.50
2022-12-15T07:31:19.513Z,-5.42
2022-12-15T07:33:46.629Z,-5.40
2022-12-15T07:36:13.640Z,-5.39
2022-12-15T07:38:40.696Z,-5.36
2022-12-15T07:41:09.502Z,-5.61
2022-12-15T07:43:37.626Z,-5.71
2022-12-15T07:46:05.696Z,-5.92
2022-12-15T07:48:33.406Z,-5.81
2022-12-15T07:51:10.871Z,-5.74
2022-12-15T07:53:42.567Z,-5.64
2022-12-15T07:56:10.453Z,-5.56
2022-12-15T07:58:38.535Z,-5.49
2022-12-15T08:01:08.374Z,-5.45
2022-12-15T08:03:37.071Z,-5.38
2022-12-15T08:06:05.903Z,-5.38
2022-12-15T08:08:34.317Z,-5.30
2022-12-15T08:11:10.126Z,-5.28
2022-12-15T08:14:02.161Z,-5.28
2022-12-15T08:16:26.226Z,-5.24
2022-12-15T08:18:53.655Z,-5.13
2022-12-15T08:21:20.984Z,-5.09
2022-12-15T08:23:48.033Z,-5.05
2022-12-15T08:26:17.404Z,-5.00
2022-12-15T08:28:45.167Z,-4.97
2022-12-15T08:31:17.812Z,-4.90
2022-12-15T08:33:45.961Z,-5.04
2022-12-15T08:36:15.596Z,-5.53
2022-12-15T08:38:44.171Z,-5.48
2022-12-15T08:41:14.555Z,-5.40
2022-12-15T08:43:48.013Z,-5.31
2022-12-15T08:46:20.582Z,-5.17
2022-12-15T08:48:48.538Z,-5.07
2022-12-15T08:51:16.359Z,-5.20
2022-12-15T08:53:46.685Z,-5.44
2022-12-15T08:56:17.245Z,-5.33
2022-12-15T08:58:45.792Z,-5.30
2022-12-15T09:01:22.152Z,-5.27
2022-12-15T09:03:51.626Z,-5.18
2022-12-15T09:06:29.545Z,-5.14
2022-12-15T09:08:58.265Z,-5.36
2022-12-15T09:11:26.292Z,-5.39
2022-12-15T09:13:53.735Z,-5.39
2022-12-15T09:16:21.901Z,-5.28
2022-12-15T09:18:51.979Z,-5.32
2022-12-15T09:21:20.828Z,-5.52
2022-12-15T09:23:51.418Z,-5.49
2022-12-15T09:26:20.101Z,-5.49
2022-12-15T09:28:50.284Z,-5.45
2022-12-15T09:31:22.506Z,-5.43
2022-12-15T09:33:50.836Z,-5.40
2022-12-15T09:36:17.833Z,-5.40
2022-12-15T09:38:45.279Z,-5.54
2022-12-15T09:41:15.283Z,-5.51
2022-12-15T09:44:13.199Z,-5.40
2022-12-15T09:47:01.810Z,-5.50
2022-12-15T09:49:43.020Z,-5.57
2022-12-15T09:52:16.106Z,-5.60
2022-12-15T09:54:44.506Z,-5.63
2022-12-15T09:57:26.392Z,-5.52
2022-12-15T09:59:56.215Z,-5.56
2022-12-15T10:02:42.382Z,-5.56
2022-12-15T10:05:50.137Z,-5.40
2022-12-15T10:08:16.393Z,-5.41
2022-12-15T10:10:59.934Z,-5.25
2022-12-15T10:13:47.292Z,-5.20
2022-12-15T10:16:25.519Z,-5.37
2022-12-15T10:19:37.246Z,-5.34
2022-12-15T10:22:05.573Z,-5.32
2022-12-15T10:25:07.972Z,-5.25
2022-12-15T10:27:34.437Z,-5.31
2022-12-15T10:30:05.935Z,-5.36
2022-12-15T10:33:01.275Z,-5.18
2022-12-15T10:35:35.421Z,-5.06
2022-12-15T10:38:05.865Z,-4.87
2022-12-15T10:40:52.125Z,-4.72
2022-12-15T10:43:27.228Z,-4.64
2022-12-15T10:46:05.734Z,-4.54
2022-12-15T10:48:32.911Z,-4.46
2022-12-15T10:51:37.118Z,-4.40
2022-12-15T10:54:10.254Z,-4.34
2022-12-15T10:56:53.401Z,-4.23
2022-12-15T10:59:39.580Z,-4.15
2022-12-15T11:02:23.498Z,-4.19
2022-12-15T11:05:13.083Z,-4.11
2022-12-15T11:07:41.639Z,-4.05
2022-12-15T11:10:24.973Z,-3.99
2022-12-15T11:13:14.035Z,-3.98
2022-12-15T11:15:50.600Z,-3.89
2022-12-15T11:18:38.630Z,-3.86
2022-12-15T11:21:13.468Z,-3.85
2022-12-15T11:23:58.790Z,-3.90
2022-12-15T11:26:35.894Z,-3.87
2022-12-15T11:29:15.476Z,-3.89
2022-12-15T11:31:44.538Z,-3.76
2022-12-15T11:34:18.369Z,-3.61
2022-12-15T11:37:23.137Z,-3.48
2022-12-15T11:40:08.728Z,-3.41
2022-12-15T11:43:00.891Z,-3.33
2022-12-15T11:45:54.994Z,-3.27
2022-12-15T11:48:32.351Z,-3.27
2022-12-15T11:50:59.388Z,-3.24
2022-12-15T11:54:04.624Z,-3.23
2022-12-15T11:56:39.113Z,-3.25
2022-12-15T11:59:26.991Z,-3.16
2022-12-15T12:02:03.423Z,-3.07
2022-12-15T12:04:42.946Z,-2.95
2022-12-15T12:07:50.129Z,-2.87
2022-12-15T12:10:23.860Z,-2.73
2022-12-15T12:13:19.015Z,-2.63
2022-12-15T12:16:20.224Z,-2.55
2022-12-15T12:19:09.153Z,-2.46
2022-12-15T12:24:50.755Z,-2.38
2022-12-15T12:27:35.925Z,-2.32
2022-12-15T12:30:25.559Z,-2.24
2022-12-15T12:33:14.348Z,-2.26
2022-12-15T12:35:54.060Z,-2.24
2022-12-15T12:38:30.670Z,-2.25
2022-12-15T12:40:57.926Z,-2.27
2022-12-15T12:43:53.981Z,-2.24
2022-12-15T12:46:36.071Z,-2.20
2022-12-15T12:49:38.526Z,-2.22
2022-12-15T12:52:16.749Z,-2.23
2022-12-15T12:54:50.680Z,-2.19
2022-12-15T12:57:29.784Z,-2.17
2022-12-15T13:00:00.719Z,-2.22
2022-12-15T13:02:27.850Z,-2.21
2022-12-15T13:04:57.923Z,-2.20
2022-12-15T13:07:39.451Z,-2.23
2022-12-15T13:10:09.225Z,-2.30
2022-12-15T13:15:44.494Z,-2.46
2022-12-15T13:18:22.090Z,-2.43
2022-12-15T13:20:53.680Z,-2.41
2022-12-15T13:23:23.557Z,-2.44
2022-12-15T13:25:56.858Z,-2.46
2022-12-15T13:28:29.009Z,-2.44
2022-12-15T13:31:18.276Z,-2.47
2022-12-15T13:33:50.991Z,-2.53
2022-12-15T13:36:36.693Z,-2.49
2022-12-15T13:39:15.718Z,-2.50
2022-12-15T13:42:00.618Z,-2.47
2022-12-15T13:44:41.471Z,-2.54
2022-12-15T13:47:18.787Z,-2.50
2022-12-15T13:50:01.824Z,-2.60
2022-12-15T13:53:16.295Z,-2.65
2022-12-15T13:55:32.553Z,-2.68
2022-12-15T13:58:17.295Z,-2.73
2022-12-15T14:00:56.113Z,-2.86
2022-12-15T14:03:23.500Z,-2.91
2022-12-15T14:06:00.166Z,-3.02
2022-12-15T14:08:30.420Z,-3.06
2022-12-15T14:13:52.322Z,-3.14
2022-12-15T14:16:22.577Z,-3.20
2022-12-15T14:19:10.312Z,-3.30
2022-12-15T14:21:37.590Z,-3.38
2022-12-15T14:24:40.029Z,-3.40
2022-12-15T14:27:09.719Z,-3.43
2022-12-15T14:29:37.015Z,-3.46
2022-12-15T14:32:08.448Z,-3.51
2022-12-15T14:34:40.540Z,-3.51
2022-12-15T14:37:15.702Z,-3.54
2022-12-15T14:39:46.900Z,-3.67
2022-12-15T14:42:38.424Z,-3.71
2022-12-15T14:45:06.286Z,-3.73
2022-12-15T14:47:35.981Z,-3.81
2022-12-15T14:50:09.852Z,-3.93
2022-12-15T14:52:40.468Z,-3.84
2022-12-15T14:55:32.886Z,-3.85
2022-12-15T14:58:01.266Z,-3.93
2022-12-15T15:00:48.415Z,-3.97
2022-12-15T15:03:07.048Z,-2.43
2022-12-15T15:03:14.143Z,-3.08
2022-12-15T15:03:16.392Z,-2.41
2022-12-15T15:06:58.729Z,-3.99
2022-12-15T15:09:39.950Z,-4.05
2022-12-15T15:12:16.203Z,-4.07
2022-12-15T15:14:50.685Z,-4.06
2022-12-15T15:17:55.589Z,-4.08
2022-12-15T15:20:30.463Z,-4.14
2022-12-15T15:23:13.410Z,-4.20
2022-12-15T15:25:48.846Z,-4.20
2022-12-15T15:28:19.258Z,-4.00
2022-12-15T15:30:48.843Z,-3.90
2022-12-15T15:33:18.814Z,-3.92
2022-12-15T15:35:53.055Z,-3.98
2022-12-15T15:38:35.239Z,-4.08
2022-12-15T15:41:27.884Z,-4.16
2022-12-15T15:46:49.154Z,-4.29
2022-12-15T15:49:21.803Z,-4.35
2022-12-15T15:51:49.127Z,-4.44
2022-12-15T15:54:23.450Z,-4.49
2022-12-15T15:56:53.296Z,-4.56
2022-12-15T15:59:21.418Z,-4.60
2022-12-15T16:01:55.422Z,-4.66
2022-12-15T16:04:24.021Z,-4.67
2022-12-15T16:06:53.300Z,-4.71
2022-12-15T16:09:20.424Z,-4.74
2022-12-15T16:11:51.632Z,-4.77
2022-12-15T16:14:20.112Z,-4.85
2022-12-15T16:16:50.526Z,-4.88
2022-12-15T16:19:20.060Z,-4.94
2022-12-15T16:21:47.544Z,-4.96
2022-12-15T16:24:18.431Z,-4.97
2022-12-15T16:26:51.375Z,-5.00
2022-12-15T16:29:20.602Z,-5.02
2022-12-15T16:31:47.910Z,-5.02
2022-12-15T16:34:18.096Z,-5.06
2022-12-15T16:36:46.425Z,-5.12
2022-12-15T16:39:34.091Z,-5.16
2022-12-15T16:42:02.100Z,-5.26
2022-12-15T16:44:34.657Z,-5.27
2022-12-15T16:47:10.348Z,-5.29
2022-12-15T16:49:40.429Z,-5.28
2022-12-15T16:52:22.008Z,-5.23
2022-12-15T16:54:50.663Z,-5.28
2022-12-15T16:57:18.490Z,-5.32
2022-12-15T16:59:46.064Z,-5.34
2022-12-15T17:02:29.460Z,-5.40
2022-12-15T17:05:03.434Z,-5.42
2022-12-15T17:07:33.955Z,-5.49
2022-12-15T17:10:01.581Z,-5.55
2022-12-15T17:12:30.434Z,-5.57
2022-12-15T17:14:57.642Z,-5.66
2022-12-15T17:17:28.939Z,-5.66
2022-12-15T17:20:27.887Z,-5.64
2022-12-15T17:22:45.690Z,-5.68
2022-12-15T17:25:31.859Z,-5.68
2022-12-15T17:28:11.049Z,-5.70
2022-12-15T17:30:38.352Z,-5.72
2022-12-15T17:33:26.384Z,-5.76
2022-12-15T17:35:56.440Z,-5.76
2022-12-15T17:38:23.887Z,-5.79
2022-12-15T17:40:59.213Z,-5.84
2022-12-15T17:43:33.617Z,-5.76
2022-12-15T17:46:05.007Z,-5.74
2022-12-15T17:48:32.645Z,-5.74
2022-12-15T17:50:59.989Z,-5.76
2022-12-15T17:53:27.310Z,-5.79
2022-12-15T17:55:54.876Z,-5.74
2022-12-15T17:58:34.758Z,-5.69
2022-12-15T18:01:05.401Z,-5.62
2022-12-15T18:03:33.143Z,-5.67
2022-12-15T18:06:01.170Z,-5.68
2022-12-15T18:08:29.779Z,-5.72
2022-12-15T18:10:57.776Z,-5.77
2022-12-15T18:13:35.069Z,-5.85
2022-12-15T18:16:02.910Z,-6.05
2022-12-15T18:18:30.167Z,-6.22
2022-12-15T18:21:02.070Z,-6.18
2022-12-15T18:23:31.354Z,-6.21
2022-12-15T18:26:02.864Z,-6.28
2022-12-15T18:28:33.350Z,-6.34
2022-12-15T18:31:22.269Z,-6.38
2022-12-15T18:33:49.504Z,-6.45
2022-12-15T18:36:17.669Z,-6.51
2022-12-15T18:38:44.888Z,-6.56
2022-12-15T18:41:19.667Z,-6.55
2022-12-15T18:43:48.200Z,-6.56
2022-12-15T18:46:16.719Z,-6.54
2022-12-15T18:48:54.048Z,-6.58
2022-12-15T18:51:21.988Z,-6.53
2022-12-15T18:53:49.404Z,-6.41
2022-12-15T18:56:18.439Z,-6.40
2022-12-15T18:58:46.968Z,-6.33
2022-12-15T19:01:14.372Z,-6.30
2022-12-15T19:03:41.803Z,-6.35
2022-12-15T19:06:26.187Z,-6.31
2022-12-15T19:08:53.746Z,-6.33
2022-12-15T19:11:28.555Z,-6.33
2022-12-15T19:13:55.736Z,-6.42
2022-12-15T19:16:22.937Z,-6.48
2022-12-15T19:18:50.141Z,-6.60
2022-12-15T19:21:29.230Z,-6.64
2022-12-15T19:23:57.997Z,-6.68
2022-12-15T19:26:27.784Z,-6.71
2022-12-15T19:28:55.425Z,-6.75
2022-12-15T19:31:22.739Z,-6.78
2022-12-15T19:33:55.154Z,-6.81
2022-12-15T19:36:24.258Z,-6.84
2022-12-15T19:38:54.789Z,-6.86
2022-12-15T19:41:22.042Z,-6.92
2022-12-15T19:43:49.055Z,-6.93
2022-12-15T19:46:20.106Z,-6.95
2022-12-15T19:48:48.201Z,-7.00
2022-12-15T19:51:20.167Z,-7.06
2022-12-15T19:53:48.767Z,-7.05
2022-12-15T19:56:23.313Z,-7.00
2022-12-15T19:58:52.776Z,-6.95
2022-12-15T20:01:20.106Z,-6.91
2022-12-15T20:03:49.964Z,-6.81
2022-12-15T20:06:26.494Z,-6.82
2022-12-15T20:08:55.630Z,-6.75
2022-12-15T20:11:25.563Z,-6.79
2022-12-15T20:13:53.342Z,-6.82
2022-12-15T20:16:21.527Z,-6.86
2022-12-15T20:18:53.773Z,-6.89
2022-12-15T20:21:28.994Z,-6.83
2022-12-15T20:23:59.764Z,-6.82
2022-12-15T20:26:30.021Z,-6.83
2022-12-15T20:28:57.545Z,-6.89
2022-12-15T20:31:26.390Z,-6.94
2022-12-15T20:33:54.325Z,-6.96
2022-12-15T20:36:27.849Z,-7.01
2022-12-15T20:38:57.641Z,-7.00
2022-12-15T20:41:27.454Z,-7.01
2022-12-15T20:43:55.802Z,-7.05
2022-12-15T20:46:34.362Z,-7.15
2022-12-15T20:49:02.270Z,-7.29
2022-12-15T20:51:33.245Z,-7.39
2022-12-15T20:54:03.462Z,-7.45
2022-12-15T20:56:30.615Z,-7.51
2022-12-15T20:58:59.923Z,-7.50
2022-12-15T21:01:30.483Z,-7.52
2022-12-15T21:03:59.236Z,-7.50
2022-12-15T21:06:28.223Z,-7.47
2022-12-15T21:08:56.233Z,-7.45
2022-12-15T21:11:31.288Z,-7.45
2022-12-15T21:13:58.800Z,-7.41
2022-12-15T21:16:28.169Z,-7.40
2022-12-15T21:21:50.123Z,-7.36
2022-12-15T21:24:22.944Z,-7.32
2022-12-15T21:26:51.078Z,-7.30
2022-12-15T21:29:21.289Z,-7.40
2022-12-15T21:31:48.585Z,-7.38
2022-12-15T21:34:15.812Z,-7.40
2022-12-15T21:36:47.002Z,-7.41
2022-12-15T21:39:30.012Z,-7.42
2022-12-15T21:42:15.527Z,-7.39
2022-12-15T21:44:42.655Z,-7.43
2022-12-15T21:47:28.782Z,-7.43
2022-12-15T21:49:57.046Z,-7.43
2022-12-15T21:52:26.662Z,-7.39
2022-12-15T21:54:54.318Z,-7.37
2022-12-15T21:57:23.363Z,-7.42
2022-12-15T21:59:50.467Z,-7.35
2022-12-15T22:02:25.239Z,-7.35
2022-12-15T22:04:55.245Z,-7.39
2022-12-15T22:07:22.762Z,-7.44
2022-12-15T22:09:49.901Z,-7.47
2022-12-15T22:12:23.478Z,-7.41
2022-12-15T22:14:50.715Z,-7.38
2022-12-15T22:17:22.409Z,-7.37
2022-12-15T22:20:04.079Z,-7.42
2022-12-15T22:22:32.047Z,-7.51
2022-12-15T22:24:59.170Z,-7.48
2022-12-15T22:27:27.324Z,-7.53
2022-12-15T22:29:54.717Z,-7.47
2022-12-15T22:32:22.281Z,-7.46
2022-12-15T22:34:49.390Z,-7.55
2022-12-15T22:37:17.761Z,-7.72
2022-12-15T22:39:45.768Z,-7.82
2022-12-15T22:42:16.840Z,-7.89
2022-12-15T22:44:44.657Z,-7.83
2022-12-15T22:47:11.781Z,-7.78
2022-12-15T22:49:40.531Z,-7.77
2022-12-15T22:52:24.436Z,-7.79
2022-12-15T22:54:51.420Z,-7.85
2022-12-15T22:57:22.946Z,-7.94
2022-12-15T23:00:07.771Z,-7.93
2022-12-15T23:02:38.509Z,-7.94
2022-12-15T23:05:06.785Z,-7.90
2022-12-15T23:07:36.830Z,-7.86
2022-12-15T23:10:04.856Z,-7.75
2022-12-15T23:12:32.066Z,-7.73
2022-12-15T23:15:01.570Z,-7.74
2022-12-15T23:17:29.038Z,-7.76
2022-12-15T23:19:56.216Z,-7.74
2022-12-15T23:22:23.262Z,-7.75
2022-12-15T23:24:50.337Z,-7.74
2022-12-15T23:27:20.118Z,-7.73
2022-12-15T23:29:47.282Z,-7.73
2022-12-15T23:32:14.701Z,-7.70
2022-12-15T23:34:41.869Z,-7.54
2022-12-15T23:37:18.111Z,-7.52
2022-12-15T23:39:45.185Z,-7.28
2022-12-15T23:42:12.371Z,-7.23
2022-12-15T23:44:41.274Z,-7.09
2022-12-15T23:47:08.443Z,-6.97
2022-12-15T23:49:37.053Z,-6.93
2022-12-15T23:52:04.261Z,-6.92
2022-12-15T23:54:31.649Z,-7.12
2022-12-15T23:56:58.702Z,-7.17
2022-12-15T23:59:25.865Z,-7.29
